Time;durP1;ratioP1;P1;durP2;ratioP2;P2;SDS_P1;SDS_P2;PMS_P1;PMS_P2;Temp;Humidity;BMP_temperature;BMP_pressure;BME280_temperature;BME280_humidity;BME280_pressure;Samples;Min_cycle;Max_cycle;Signal;HPM_P1;HPM_P2
2020/12/05 00:01:51;;;;;;;77.20;35.95;;;;;;;6.95;98.37;97123.44;4967345;28;20529;-62
2020/12/05 00:04:16;;;;;;;84.13;34.97;;;;;;;7.15;96.59;97117.78;4965859;28;20030;-63
2020/12/05 00:06:42;;;;;;;84.35;36.70;;;;;;;7.12;97.28;97112.97;4965706;28;20041;-62
2020/12/05 00:09:07;;;;;;;73.60;34.17;;;;;;;7.12;97.70;97112.16;4966137;28;20077;-62
2020/12/05 00:11:33;;;;;;;77.20;33.60;;;;;;;7.09;97.44;97116.44;4965208;28;20034;-63
2020/12/05 00:13:59;;;;;;;85.15;37.15;;;;;;;6.67;97.96;97071.00;4966209;28;20093;-63
2020/12/05 00:16:24;;;;;;;87.75;38.45;;;;;;;6.92;99.38;97124.94;4965645;28;20035;-62
2020/12/05 00:18:54;;;;;;;87.88;38.03;;;;;;;6.88;98.65;97101.16;4966889;28;20055;-63
2020/12/05 00:21:20;;;;;;;90.75;40.33;;;;;;;7.01;98.37;97114.59;4965293;28;20034;-63
2020/12/05 00:23:46;;;;;;;87.18;40.05;;;;;;;6.88;98.88;97099.22;4965455;28;20042;-64
2020/12/05 00:26:21;;;;;;;89.43;42.10;;;;;;;7.22;97.49;97140.03;4965245;28;20057;-63
2020/12/05 00:28:48;;;;;;;90.30;41.70;;;;;;;6.92;97.48;97078.13;4965468;28;20113;-63
2020/12/05 00:31:14;;;;;;;95.13;43.72;;;;;;;7.35;96.98;97133.38;4965241;28;20042;-64
2020/12/05 00:33:40;;;;;;;88.75;42.13;;;;;;;7.31;96.87;97129.72;4966839;28;20034;-64
2020/12/05 00:36:06;;;;;;;95.78;43.35;;;;;;;7.43;96.57;97117.84;4966731;28;20043;-65
2020/12/05 00:38:32;;;;;;;97.43;45.17;;;;;;;7.11;96.69;97061.78;4965453;28;20073;-63
2020/12/05 00:40:58;;;;;;;97.55;46.00;;;;;;;7.28;96.12;97082.75;4966515;28;20062;-63
2020/12/05 00:43:23;;;;;;;94.55;43.70;;;;;;;7.19;96.10;97096.66;4965242;28;20050;-63
2020/12/05 00:45:49;;;;;;;96.90;44.53;;;;;;;7.41;96.15;97117.41;4966509;28;20030;-63
2020/12/05 00:48:15;;;;;;;94.30;43.35;;;;;;;6.37;96.32;96981.59;4964915;28;20518;-62
2020/12/05 00:50:40;;;;;;;98.47;43.67;;;;;;;7.08;96.73;97106.53;4964755;28;20131;-63
2020/12/05 00:53:06;;;;;;;96.80;43.38;;;;;;;6.47;97.34;97052.69;4964908;28;20046;-62
2020/12/05 00:55:31;;;;;;;111.10;48.38;;;;;;;7.31;97.28;97149.00;4966221;28;20030;-63
2020/12/05 00:57:57;;;;;;;101.15;43.63;;;;;;;6.68;96.92;97056.13;4963696;28;20042;-63
2020/12/05 01:00:22;;;;;;;87.93;39.08;;;;;;;7.12;97.92;97143.28;4964709;28;20030;-62
2020/12/05 01:02:49;;;;;;;100.65;43.60;;;;;;;7.16;98.00;97146.94;4964861;28;20050;-62
2020/12/05 01:05:14;;;;;;;99.75;43.13;;;;;;;7.17;97.19;97140.31;4966490;28;20038;-63
2020/12/05 01:07:40;;;;;;;93.20;40.78;;;;;;;6.99;98.70;97130.66;4964478;28;20437;-63
2020/12/05 01:10:06;;;;;;;90.20;39.55;;;;;;;7.26;97.82;97135.47;4964244;28;20062;-63
2020/12/05 01:12:32;;;;;;;143.55;65.68;;;;;;;7.42;96.30;97144.63;4965478;28;20054;-64
2020/12/05 01:15:01;;;;;;;144.48;66.72;;;;;;;7.36;96.50;97135.00;4966119;28;20030;-63
2020/12/05 01:17:35;;;;;;;107.82;52.28;;;;;;;7.44;95.54;97130.50;4966038;28;20034;-63
2020/12/05 01:20:03;;;;;;;100.35;46.10;;;;;;;6.96;95.82;97059.75;4965311;28;20578;-63
2020/12/05 01:22:28;;;;;;;103.85;48.17;;;;;;;7.27;96.75;97142.56;4966190;28;20494;-62
2020/12/05 01:24:54;;;;;;;109.88;46.65;;;;;;;7.42;96.74;97149.31;4966229;28;20031;-63
2020/12/05 01:27:19;;;;;;;96.63;45.28;;;;;;;7.36;96.97;97157.03;4964129;28;20043;-62
2020/12/05 01:29:45;;;;;;;105.63;48.45;;;;;;;7.40;97.21;97130.38;4964612;28;20085;-62
2020/12/05 01:32:11;;;;;;;102.00;46.03;;;;;;;7.35;96.47;97116.84;4964045;28;20038;-63
2020/12/05 01:34:37;;;;;;;120.10;49.65;;;;;;;7.55;97.63;97154.47;4966179;28;20046;-63
2020/12/05 01:37:02;;;;;;;107.95;44.42;;;;;;;7.49;98.05;97133.00;4965824;28;20153;-63
2020/12/05 01:39:28;;;;;;;125.82;48.65;;;;;;;7.02;98.87;97063.88;4964652;28;20050;-63
2020/12/05 01:41:53;;;;;;;135.77;49.90;;;;;;;7.56;100.00;97136.78;4964049;28;20453;-64
2020/12/05 01:44:19;;;;;;;126.10;50.92;;;;;;;7.67;100.00;97129.63;4966082;28;20062;-63
2020/12/05 01:46:47;;;;;;;119.57;48.60;;;;;;;7.75;100.00;97130.63;4964287;28;20069;-64
2020/12/05 01:49:15;;;;;;;118.80;46.65;;;;;;;7.73;100.00;97133.72;4966052;28;20035;-63
2020/12/05 01:51:42;;;;;;;113.80;45.25;;;;;;;7.77;100.00;97133.03;4964150;28;20121;-63
2020/12/05 01:54:08;;;;;;;129.95;47.95;;;;;;;7.77;100.00;97138.53;4965838;28;20045;-63
2020/12/05 01:56:34;;;;;;;127.30;48.95;;;;;;;7.67;100.00;97117.78;4965620;28;20070;-64
2020/12/05 01:58:59;;;;;;;121.93;48.20;;;;;;;7.83;100.00;97137.94;4964332;28;20042;-63
2020/12/05 02:01:26;;;;;;;118.82;45.97;;;;;;;7.95;100.00;97139.88;4964233;28;20031;-63
2020/12/05 02:03:56;;;;;;;122.47;47.95;;;;;;;7.23;100.00;97048.00;4965812;28;20117;-63
2020/12/05 02:06:45;;;;;;;120.55;47.15;;;;;;;7.87;100.00;97138.06;4964057;28;20041;-64
2020/12/05 02:09:25;;;;;;;130.07;47.30;;;;;;;7.79;100.00;97130.72;4965383;28;20058;-64
2020/12/05 02:12:02;;;;;;;114.70;45.22;;;;;;;8.02;100.00;97140.06;4969283;28;20668;-63
2020/12/05 02:14:30;;;;;;;120.20;47.53;;;;;;;7.29;98.81;97032.81;4969745;28;20159;-64
2020/12/05 02:17:01;;;;;;;111.78;45.22;;;;;;;7.93;99.63;97147.69;4969328;28;20027;-63
2020/12/05 02:19:42;;;;;;;120.05;48.30;;;;;;;7.95;99.54;97145.38;4969170;28;20133;-63
2020/12/05 02:22:12;;;;;;;121.32;48.58;;;;;;;7.69;99.28;97110.78;4969219;28;20022;-63
2020/12/05 02:24:38;;;;;;;117.68;47.72;;;;;;;8.02;98.87;97154.66;4967810;28;20060;-63
2020/12/05 02:27:04;;;;;;;133.85;49.83;;;;;;;7.73;98.79;97111.69;4967832;28;20023;-63
2020/12/05 02:29:29;;;;;;;136.00;48.58;;;;;;;7.29;98.21;97024.56;4969479;28;20070;-63
2020/12/05 02:31:56;;;;;;;119.88;49.38;;;;;;;7.84;97.94;97108.44;4967172;28;20042;-63
2020/12/05 02:34:22;;;;;;;127.10;50.47;;;;;;;7.65;97.96;97087.00;4967572;28;20512;-62
2020/12/05 02:36:50;;;;;;;128.05;49.67;;;;;;;8.12;97.59;97156.13;4968007;28;20039;-61
2020/12/05 02:39:17;;;;;;;121.00;47.58;;;;;;;8.05;97.06;97145.69;4967987;28;20055;-61
2020/12/05 02:41:43;;;;;;;125.57;47.50;;;;;;;8.14;96.94;97164.84;4969002;28;20038;-61
2020/12/05 02:44:08;;;;;;;114.25;45.72;;;;;;;8.12;96.98;97164.38;4967622;28;20046;-61
2020/12/05 02:46:34;;;;;;;132.85;48.92;;;;;;;8.06;96.52;97163.03;4967135;28;20468;-61
2020/12/05 02:49:00;;;;;;;118.15;47.67;;;;;;;8.09;96.48;97167.84;4969004;28;20042;-61
2020/12/05 02:51:26;;;;;;;122.28;50.03;;;;;;;7.98;96.61;97151.00;4968483;28;20088;-60
2020/12/05 02:53:51;;;;;;;122.88;49.65;;;;;;;7.67;96.94;97115.84;4969092;28;20070;-61
2020/12/05 02:56:17;;;;;;;125.97;49.83;;;;;;;7.99;96.84;97157.31;4967108;28;20636;-61
2020/12/05 02:58:46;;;;;;;128.88;51.63;;;;;;;7.96;97.73;97164.34;4967129;28;20042;-61
2020/12/05 03:01:12;;;;;;;121.93;45.35;;;;;;;7.74;98.08;97131.78;4967280;28;20516;-61
2020/12/05 03:03:38;;;;;;;130.73;46.20;;;;;;;7.39;100.00;97112.25;4966849;28;20046;-61
2020/12/05 03:06:03;;;;;;;131.98;45.85;;;;;;;7.33;100.00;97075.03;4966844;28;20556;-61
2020/12/05 03:08:28;;;;;;;129.63;45.60;;;;;;;7.97;100.00;97165.13;4968438;28;20039;-60
2020/12/05 03:10:54;;;;;;;132.15;45.33;;;;;;;7.46;100.00;97101.44;4966570;28;20121;-61
2020/12/05 03:13:19;;;;;;;133.75;48.83;;;;;;;7.89;100.00;97163.34;4968373;28;20042;-61
2020/12/05 03:15:45;;;;;;;149.52;47.92;;;;;;;7.68;100.00;97136.72;4966939;28;20062;-61
2020/12/05 03:18:10;;;;;;;144.10;48.70;;;;;;;7.77;100.00;97155.09;4966446;28;20046;-62
2020/12/05 03:20:35;;;;;;;148.15;47.03;;;;;;;7.13;100.00;97042.97;4966921;28;20018;-62
2020/12/05 03:23:01;;;;;;;150.50;49.53;;;;;;;7.87;100.00;97154.59;4968133;28;20510;-62
2020/12/05 03:25:26;;;;;;;150.82;46.47;;;;;;;8.00;100.00;97164.44;4966642;28;20027;-62
2020/12/05 03:27:52;;;;;;;157.70;47.42;;;;;;;7.73;100.00;97117.19;4966431;28;20045;-62
2020/12/05 03:30:17;;;;;;;152.18;46.95;;;;;;;8.06;99.77;97146.50;4967821;28;20035;-62
2020/12/05 03:32:43;;;;;;;158.38;46.33;;;;;;;7.97;99.61;97162.38;4966006;28;20035;-61
2020/12/05 03:35:09;;;;;;;167.85;47.47;;;;;;;7.91;100.00;97152.75;4967846;28;20105;-61
2020/12/05 03:37:36;;;;;;;150.07;44.55;;;;;;;6.99;100.00;97042.53;4966356;28;20487;-62
2020/12/05 03:40:05;;;;;;;142.82;43.22;;;;;;;7.93;100.00;97144.94;4968040;28;20179;-62
2020/12/05 03:42:31;;;;;;;157.30;47.28;;;;;;;7.67;100.00;97121.34;4966374;28;20429;-63
2020/12/05 03:44:57;;;;;;;167.90;46.08;;;;;;;7.84;100.00;97155.31;4967843;28;20027;-61
2020/12/05 03:47:23;;;;;;;156.90;47.67;;;;;;;7.87;100.00;97160.13;4967570;28;20034;-60
2020/12/05 03:49:48;;;;;;;171.35;47.10;;;;;;;7.82;100.00;97154.84;4966147;28;20035;-62
2020/12/05 03:52:15;;;;;;;173.93;47.58;;;;;;;7.81;100.00;97153.25;4967332;28;20039;-61
2020/12/05 03:54:41;;;;;;;186.10;45.92;;;;;;;7.32;100.00;97078.97;4967746;28;20039;-60
2020/12/05 03:57:07;;;;;;;196.57;46.42;;;;;;;7.59;100.00;97125.06;4967400;28;20033;-60
2020/12/05 03:59:32;;;;;;;197.45;46.85;;;;;;;7.64;100.00;97130.31;4967420;28;20034;-61
2020/12/05 04:01:58;;;;;;;206.95;49.90;;;;;;;7.19;100.00;97074.63;4966006;28;20027;-60
2020/12/05 04:04:23;;;;;;;273.58;57.70;;;;;;;7.72;100.00;97159.72;4967798;28;20118;-60
2020/12/05 04:06:48;;;;;;;232.13;53.78;;;;;;;7.81;100.00;97172.56;4965668;28;20030;-59
2020/12/05 04:09:14;;;;;;;319.48;57.45;;;;;;;7.56;100.00;97155.25;4965639;28;20589;-60
2020/12/05 04:11:40;;;;;;;296.08;59.53;;;;;;;7.80;100.00;97181.97;4965664;28;20042;-60
2020/12/05 04:14:09;;;;;;;242.65;56.25;;;;;;;7.84;100.00;97177.38;4965828;28;20125;-60
2020/12/05 04:16:36;;;;;;;291.88;56.85;;;;;;;7.95;100.00;97167.44;4965459;28;20042;-60
2020/12/05 04:19:03;;;;;;;260.58;58.90;;;;;;;7.90;100.00;97170.44;4965279;28;20061;-61
2020/12/05 04:21:28;;;;;;;427.17;80.50;;;;;;;7.94;100.00;97165.81;4965441;28;20030;-59
2020/12/05 04:23:54;;;;;;;360.08;71.88;;;;;;;7.59;100.00;97122.28;4967161;28;20046;-59
2020/12/05 04:26:23;;;;;;;371.85;67.85;;;;;;;7.87;100.00;97171.16;4965368;28;20034;-59
2020/12/05 04:28:49;;;;;;;398.65;63.38;;;;;;;7.84;100.00;97177.38;4967137;28;20039;-59
2020/12/05 04:31:15;;;;;;;312.52;59.42;;;;;;;7.57;100.00;97151.38;4966590;28;20101;-60
2020/12/05 04:33:41;;;;;;;272.23;56.92;;;;;;;7.26;100.00;97074.84;4965136;28;20035;-60
2020/12/05 04:36:06;;;;;;;460.08;69.78;;;;;;;7.69;100.00;97138.34;4966488;28;20580;-59
2020/12/05 04:38:32;;;;;;;308.23;61.53;;;;;;;7.38;100.00;97093.31;4966865;28;20580;-61
2020/12/05 04:40:58;;;;;;;268.63;60.33;;;;;;;7.53;100.00;97134.72;4965216;28;20031;-60
2020/12/05 04:43:24;;;;;;;311.95;69.13;;;;;;;7.82;100.00;97163.94;4965027;28;20046;-60
2020/12/05 04:45:50;;;;;;;532.58;89.75;;;;;;;7.98;100.00;97183.28;4966430;28;20126;-61
2020/12/05 04:48:16;;;;;;;502.25;75.47;;;;;;;7.63;100.00;97128.69;4964908;28;20121;-61
2020/12/05 04:50:45;;;;;;;412.10;70.60;;;;;;;7.96;100.00;97174.56;4966535;28;20049;-59
2020/12/05 04:53:16;;;;;;;391.17;80.57;;;;;;;7.97;100.00;97187.19;4964825;28;20078;-60
2020/12/05 04:55:42;;;;;;;504.08;125.43;;;;;;;7.99;100.00;97180.19;4965130;28;20509;-60
2020/12/05 04:58:22;;;;;;;329.15;85.13;;;;;;;7.93;100.00;97172.50;4965257;28;20657;-60
2020/12/05 05:00:53;;;;;;;294.35;75.10;;;;;;;8.06;100.00;97190.63;4966417;28;20497;-60
2020/12/05 05:03:21;;;;;;;291.52;73.20;;;;;;;8.06;100.00;97191.41;4966363;28;20069;-59
2020/12/05 05:05:46;;;;;;;276.77;68.35;;;;;;;7.44;100.00;97114.78;4964327;28;20035;-60
2020/12/05 05:08:12;;;;;;;296.05;70.78;;;;;;;7.61;100.00;97147.56;4966302;28;20064;-61
2020/12/05 05:10:38;;;;;;;296.15;62.90;;;;;;;7.76;100.00;97164.53;4964692;28;20031;-61
2020/12/05 05:13:21;;;;;;;299.20;76.00;;;;;;;7.88;100.00;97189.28;4966283;28;20043;-61
2020/12/05 05:15:46;;;;;;;309.52;74.30;;;;;;;7.73;100.00;97194.38;4966201;28;20035;-60
2020/12/05 05:18:13;;;;;;;325.13;65.53;;;;;;;7.86;100.00;97208.13;4965791;28;20055;-61
2020/12/05 05:20:42;;;;;;;389.15;99.00;;;;;;;7.92;100.00;97204.78;4964333;28;20513;-61
2020/12/05 05:23:15;;;;;;;316.42;75.72;;;;;;;7.98;100.00;97197.91;4966151;28;20150;-60
2020/12/05 05:25:47;;;;;;;367.60;89.50;;;;;;;7.90;100.00;97212.63;4964148;28;20049;-60
2020/12/05 05:28:17;;;;;;;329.33;82.13;;;;;;;7.95;100.00;97211.56;4965594;28;20045;-61
2020/12/05 05:33:50;;;;;;;313.17;83.47;;;;;;;7.37;100.00;97128.31;4965800;28;20043;-61
2020/12/05 05:36:17;;;;;;;299.83;77.63;;;;;;;7.62;100.00;97175.91;4965733;28;20059;-61
2020/12/05 05:38:43;;;;;;;267.70;67.90;;;;;;;7.34;100.00;97104.22;4964347;28;20046;-61
2020/12/05 05:41:20;;;;;;;248.93;60.90;;;;;;;7.94;100.00;97220.97;4964163;28;20066;-60
2020/12/05 05:44:12;;;;;;;264.08;59.83;;;;;;;7.95;100.00;97217.09;4964153;28;20073;-61
2020/12/05 05:46:42;;;;;;;245.02;58.72;;;;;;;7.91;100.00;97221.69;4965796;28;20074;-61
2020/12/05 05:49:12;;;;;;;257.98;61.72;;;;;;;7.91;100.00;97232.72;4965875;28;20035;-61
2020/12/05 05:51:45;;;;;;;285.48;73.63;;;;;;;7.86;100.00;97243.97;4965503;28;20034;-62
2020/12/05 05:54:29;;;;;;;267.33;69.10;;;;;;;6.04;100.00;96942.41;4964326;28;20097;-60
2020/12/05 05:57:01;;;;;;;277.88;68.53;;;;;;;7.64;100.00;97210.28;4963946;28;20373;-62
2020/12/05 05:59:29;;;;;;;265.05;70.60;;;;;;;7.92;100.00;97239.84;4965848;28;20089;-62
2020/12/05 06:01:56;;;;;;;281.20;72.03;;;;;;;7.88;100.00;97241.69;4965383;28;20121;-61
2020/12/05 06:04:27;;;;;;;288.08;74.20;;;;;;;7.81;100.00;97222.19;4964117;28;20058;-61
2020/12/05 06:06:54;;;;;;;291.70;84.38;;;;;;;7.91;100.00;97233.53;4964117;28;20073;-60
2020/12/05 06:09:28;;;;;;;324.90;74.70;;;;;;;7.99;100.00;97234.53;4965838;28;20046;-61
2020/12/05 06:11:56;;;;;;;284.38;75.93;;;;;;;8.02;100.00;97239.34;4965229;28;20054;-61
2020/12/05 06:14:23;;;;;;;281.92;81.07;;;;;;;7.93;100.00;97202.84;4965977;28;20097;-62
2020/12/05 06:16:57;;;;;;;318.85;113.35;;;;;;;7.96;100.00;97221.44;4965527;28;20679;-62
2020/12/05 06:19:24;;;;;;;308.80;92.05;;;;;;;8.24;100.00;97242.44;4963586;28;20054;-62
2020/12/05 06:21:55;;;;;;;292.17;84.20;;;;;;;8.25;100.00;97243.25;4963423;28;20470;-62
2020/12/05 06:24:56;;;;;;;284.02;91.70;;;;;;;7.95;100.00;97168.22;4963808;28;20101;-62
2020/12/05 06:27:25;;;;;;;274.10;78.65;;;;;;;8.30;100.00;97185.81;4953603;28;20043;-62
2020/12/05 06:29:51;;;;;;;247.73;77.88;;;;;;;8.26;100.00;97206.22;4944615;29;20043;-62
2020/12/05 06:32:38;;;;;;;260.00;83.05;;;;;;;8.68;100.00;97246.03;4949284;28;20494;-62
2020/12/05 06:35:24;;;;;;;307.88;96.93;;;;;;;8.10;100.00;97152.91;4963662;28;20047;-62
2020/12/05 06:37:55;;;;;;;289.08;98.63;;;;;;;8.56;100.00;97224.00;4967742;28;20134;-62
2020/12/05 06:40:21;;;;;;;272.83;92.75;;;;;;;8.73;100.00;97254.88;4962743;28;20498;-61
2020/12/05 06:42:49;;;;;;;254.07;86.95;;;;;;;8.72;99.74;97230.38;4964911;28;20423;-62
2020/12/05 06:45:27;;;;;;;250.50;81.32;;;;;;;8.99;99.02;97248.84;4962790;28;20034;-61
2020/12/05 06:47:53;;;;;;;248.65;87.88;;;;;;;9.05;98.67;97264.81;4964988;28;20524;-62
2020/12/05 06:50:40;;;;;;;238.82;87.57;;;;;;;9.33;97.07;97255.63;4963597;28;20033;-59
2020/12/05 06:53:20;;;;;;;211.25;76.68;;;;;;;9.30;96.83;97262.69;4961481;28;20130;-59
2020/12/05 06:55:48;;;;;;;232.18;78.20;;;;;;;9.21;96.35;97264.84;4946259;28;20027;-59
2020/12/05 06:58:13;;;;;;;268.27;104.60;;;;;;;9.04;96.93;97254.13;4958017;28;20299;-60
2020/12/05 07:00:40;;;;;;;216.82;71.50;;;;;;;9.10;96.58;97247.19;4966872;28;20422;-60
2020/12/05 07:03:09;;;;;;;203.20;66.75;;;;;;;9.21;96.63;97267.59;4966099;28;20043;-60
2020/12/05 07:05:45;;;;;;;199.00;65.25;;;;;;;9.17;97.34;97269.44;4967651;28;20039;-59
2020/12/05 07:08:25;;;;;;;199.60;63.78;;;;;;;9.15;97.87;97269.03;4968161;28;20580;-59
2020/12/05 07:11:16;;;;;;;201.18;67.53;;;;;;;9.15;98.68;97277.31;4967607;28;20520;-60
2020/12/05 07:13:45;;;;;;;210.95;66.28;;;;;;;8.83;97.74;97214.88;4967920;28;20486;-60
2020/12/05 07:16:16;;;;;;;208.02;69.18;;;;;;;8.97;97.58;97231.81;4968225;28;20123;-60
2020/12/05 07:18:46;;;;;;;194.93;69.38;;;;;;;9.25;97.34;97279.53;4968155;28;20089;-60
2020/12/05 07:21:13;;;;;;;197.27;68.93;;;;;;;9.26;97.42;97267.34;4968073;28;20086;-58
2020/12/05 07:23:39;;;;;;;210.20;72.80;;;;;;;8.81;97.77;97218.00;4982534;28;20037;-57
2020/12/05 07:26:06;;;;;;;227.07;89.32;;;;;;;8.87;98.76;97233.16;4986156;28;20294;-59
2020/12/05 07:28:32;;;;;;;242.90;90.88;;;;;;;9.32;98.71;97288.03;4987380;28;20070;-59
2020/12/05 07:30:58;;;;;;;182.73;70.55;;;;;;;9.11;97.51;97270.88;4967749;28;20105;-59
2020/12/05 07:33:23;;;;;;;177.70;68.07;;;;;;;9.48;97.34;97283.28;4967418;28;20038;-60
2020/12/05 07:36:15;;;;;;;166.13;62.42;;;;;;;9.05;96.84;97222.56;4966802;28;20117;-62
2020/12/05 07:38:42;;;;;;;181.77;72.95;;;;;;;9.68;96.28;97279.44;4968139;28;20046;-60
2020/12/05 07:41:18;;;;;;;179.60;77.30;;;;;;;8.91;95.74;97151.19;4966262;28;20069;-61
2020/12/05 07:43:44;;;;;;;225.45;100.47;;;;;;;9.85;97.43;97294.84;4967375;28;20142;-59
2020/12/05 07:46:12;;;;;;;182.55;74.43;;;;;;;9.95;98.26;97292.34;4967621;28;20109;-59
2020/12/05 07:48:38;;;;;;;161.90;65.03;;;;;;;10.01;96.27;97288.13;4968049;28;20045;-59
2020/12/05 07:51:11;;;;;;;170.45;77.00;;;;;;;10.02;95.23;97298.03;4967933;28;20806;-58
2020/12/05 07:53:36;;;;;;;172.13;66.35;;;;;;;10.12;93.50;97302.22;4967354;28;20459;-58
2020/12/05 07:56:19;;;;;;;172.15;64.75;;;;;;;10.19;94.02;97297.69;4965826;28;20027;-59
2020/12/05 07:58:46;;;;;;;145.95;62.85;;;;;;;10.33;92.69;97295.22;4965842;28;20054;-58
2020/12/05 08:01:29;;;;;;;151.80;63.08;;;;;;;10.34;92.26;97299.59;4967203;28;20026;-58
2020/12/05 08:04:14;;;;;;;129.65;52.42;;;;;;;10.46;90.93;97301.41;4967280;28;20572;-59
2020/12/05 08:07:03;;;;;;;134.35;55.55;;;;;;;10.49;90.73;97293.19;4966212;28;20424;-59
2020/12/05 08:09:37;;;;;;;157.52;68.25;;;;;;;10.44;91.14;97300.97;4967565;28;20046;-59
2020/12/05 08:12:05;;;;;;;153.95;66.72;;;;;;;10.16;90.30;97284.53;4966211;28;20113;-58
2020/12/05 08:14:33;;;;;;;141.27;60.40;;;;;;;10.12;90.44;97244.91;4966961;28;20325;-57
2020/12/05 08:17:02;;;;;;;141.75;58.85;;;;;;;10.48;90.52;97301.84;4967120;28;20502;-58
2020/12/05 08:19:29;;;;;;;140.55;55.33;;;;;;;10.56;90.40;97315.50;4966572;28;20429;-58
2020/12/05 08:21:55;;;;;;;136.65;56.70;;;;;;;10.43;90.43;97310.47;4967081;28;20559;-58
2020/12/05 08:24:20;;;;;;;146.30;60.17;;;;;;;10.32;91.00;97293.59;4965915;28;20038;-59
2020/12/05 08:26:50;;;;;;;196.38;83.78;;;;;;;10.53;90.66;97332.84;4965908;28;20027;-59
2020/12/05 08:29:18;;;;;;;174.27;79.20;;;;;;;10.15;91.38;97321.69;4967384;28;20065;-59
2020/12/05 08:31:44;;;;;;;203.55;96.30;;;;;;;10.41;91.49;97313.59;4966820;28;20467;-61
2020/12/05 08:34:10;;;;;;;314.70;158.70;;;;;;;10.67;91.60;97330.38;4967234;28;20143;-59
2020/12/05 08:36:45;;;;;;;301.75;141.52;;;;;;;10.68;92.23;97328.41;4966464;28;20039;-58
2020/12/05 08:39:15;;;;;;;231.73;105.28;;;;;;;10.19;92.04;97255.34;4966299;28;20122;-57
2020/12/05 08:41:49;;;;;;;206.05;94.35;;;;;;;10.62;92.31;97319.56;4966610;28;20117;-57
2020/12/05 08:44:20;;;;;;;213.23;95.82;;;;;;;10.52;93.36;97325.69;4965949;28;20053;-57
2020/12/05 08:46:45;;;;;;;194.07;84.20;;;;;;;10.60;92.28;97313.59;4966336;28;20525;-57
2020/12/05 08:49:20;;;;;;;188.80;81.80;;;;;;;10.70;92.58;97326.88;4966757;28;20031;-57
2020/12/05 08:51:52;;;;;;;164.48;73.15;;;;;;;10.88;91.11;97326.41;4966372;28;20031;-59
2020/12/05 08:54:18;;;;;;;162.05;69.75;;;;;;;10.67;91.28;97316.50;4966630;28;20053;-58
2020/12/05 08:56:43;;;;;;;167.95;70.35;;;;;;;10.77;91.81;97325.41;4966076;28;20093;-58
2020/12/05 08:59:09;;;;;;;177.20;75.50;;;;;;;10.41;92.08;97263.75;4966715;28;20124;-57
2020/12/05 09:01:36;;;;;;;177.38;78.93;;;;;;;10.78;92.30;97322.25;4966156;28;20041;-60
2020/12/05 09:04:02;;;;;;;171.75;80.80;;;;;;;10.79;92.38;97331.38;4964743;28;20499;-59
2020/12/05 09:06:28;;;;;;;190.35;80.75;;;;;;;10.75;92.70;97316.69;4966443;28;20100;-58
2020/12/05 09:08:54;;;;;;;187.13;77.97;;;;;;;10.82;92.90;97325.94;4966544;28;20491;-59
2020/12/05 09:11:21;;;;;;;177.90;79.28;;;;;;;10.91;92.42;97325.72;4963947;28;20038;-59
2020/12/05 09:13:46;;;;;;;188.23;86.07;;;;;;;10.98;92.47;97309.22;4964958;28;20130;-59
2020/12/05 09:16:11;;;;;;;193.60;87.55;;;;;;;11.01;92.09;97325.09;4964611;28;20125;-60
2020/12/05 09:18:42;;;;;;;200.98;93.15;;;;;;;11.02;92.14;97310.09;4963374;28;20434;-59
2020/12/05 09:21:15;;;;;;;226.60;100.05;;;;;;;11.00;91.36;97312.44;4955244;28;20038;-60
2020/12/05 09:23:41;;;;;;;218.23;101.40;;;;;;;10.52;91.46;97248.16;4966397;28;20329;-58
2020/12/05 09:26:07;;;;;;;246.55;114.88;;;;;;;11.01;91.68;97314.81;4965837;28;20511;-60
2020/12/05 09:28:33;;;;;;;217.82;105.25;;;;;;;11.10;92.00;97317.34;4965918;28;20038;-62
2020/12/05 09:31:05;;;;;;;235.70;110.72;;;;;;;11.19;91.07;97315.19;4965737;28;20041;-61
2020/12/05 09:33:31;;;;;;;231.82;112.47;;;;;;;11.24;91.48;97323.97;4965832;28;20517;-61
2020/12/05 09:35:56;;;;;;;242.52;114.65;;;;;;;10.70;91.08;97265.91;4966165;28;20047;-59
2020/12/05 09:38:22;;;;;;;235.63;113.43;;;;;;;11.21;92.09;97327.50;4947618;28;20043;-60
2020/12/05 09:40:47;;;;;;;238.02;117.07;;;;;;;11.24;92.09;97312.88;4965693;28;20414;-57
2020/12/05 09:43:13;;;;;;;299.80;145.88;;;;;;;10.25;92.02;97152.25;4965633;28;20038;-59
2020/12/05 09:45:39;;;;;;;262.08;130.43;;;;;;;11.33;91.70;97309.88;4964149;28;20049;-59
2020/12/05 09:48:05;;;;;;;304.63;154.00;;;;;;;11.22;91.71;97312.47;4965937;28;20035;-57
2020/12/05 09:50:30;;;;;;;321.08;155.40;;;;;;;11.26;92.19;97309.75;4965845;28;20409;-58
2020/12/05 09:52:57;;;;;;;270.17;132.85;;;;;;;11.22;92.88;97311.66;4965853;28;20039;-60
2020/12/05 09:55:23;;;;;;;261.70;125.13;;;;;;;11.14;92.36;97312.69;4963567;28;20049;-56
2020/12/05 09:57:48;;;;;;;260.38;132.70;;;;;;;10.50;92.01;97158.28;4965783;28;20043;-58
2020/12/05 10:00:14;;;;;;;279.40;147.13;;;;;;;11.36;91.99;97292.50;4965733;28;20019;-59
2020/12/05 10:02:41;;;;;;;262.77;135.55;;;;;;;11.47;91.48;97307.38;4963747;28;20071;-58
2020/12/05 10:05:08;;;;;;;258.83;132.93;;;;;;;11.50;91.65;97301.06;4964493;28;20043;-58
2020/12/05 10:07:33;;;;;;;248.27;121.65;;;;;;;11.58;90.23;97305.56;4964232;28;20519;-59
2020/12/05 10:09:59;;;;;;;235.35;118.15;;;;;;;11.57;90.26;97301.22;4965734;28;20041;-59
2020/12/05 10:12:24;;;;;;;246.82;122.88;;;;;;;11.25;90.51;97269.31;4964939;28;20077;-56
2020/12/05 10:14:50;;;;;;;246.88;127.22;;;;;;;11.47;90.71;97294.31;4965287;28;20062;-58
2020/12/05 10:17:16;;;;;;;247.98;125.28;;;;;;;11.17;90.42;97245.41;4964720;28;20030;-60
2020/12/05 10:19:41;;;;;;;217.77;108.53;;;;;;;11.59;89.67;97302.44;4963876;28;20093;-60
2020/12/05 10:22:07;;;;;;;217.75;106.00;;;;;;;11.04;91.03;97250.34;4965613;28;20034;-62
2020/12/05 10:24:32;;;;;;;181.90;82.65;;;;;;;11.49;91.49;97307.81;4965500;28;20070;-60
2020/12/05 10:26:58;;;;;;;193.82;93.55;;;;;;;11.46;91.80;97306.56;4957574;28;20038;-62
2020/12/05 10:29:24;;;;;;;204.30;91.47;;;;;;;11.39;92.11;97308.41;4965600;28;20093;-59
2020/12/05 10:31:52;;;;;;;197.07;90.55;;;;;;;11.39;92.86;97305.63;4968566;28;20554;-61
2020/12/05 10:34:17;;;;;;;132.10;65.40;;;;;;;11.40;92.98;97304.44;4967291;28;20517;-60
2020/12/05 10:36:43;;;;;;;150.98;71.03;;;;;;;11.31;93.49;97295.56;4967294;28;20129;-59
2020/12/05 10:39:10;;;;;;;153.00;72.10;;;;;;;11.26;93.84;97287.56;4968265;28;20045;-58
2020/12/05 10:41:36;;;;;;;154.10;68.82;;;;;;;11.11;94.30;97283.72;4967243;28;20034;-57
2020/12/05 10:44:06;;;;;;;164.88;72.70;;;;;;;10.44;94.44;97191.00;4969206;28;20066;-58
2020/12/05 10:46:32;;;;;;;201.48;93.57;;;;;;;11.22;94.48;97297.78;4967856;28;20502;-62
2020/12/05 10:48:57;;;;;;;183.73;82.90;;;;;;;10.94;94.40;97253.69;4966781;28;20043;-60
2020/12/05 10:51:23;;;;;;;219.02;106.63;;;;;;;11.16;94.40;97293.72;4967579;28;20045;-57
2020/12/05 10:53:48;;;;;;;203.38;100.97;;;;;;;11.18;94.70;97292.19;4968789;28;20051;-60
2020/12/05 10:56:14;;;;;;;202.00;96.38;;;;;;;11.11;94.57;97280.94;4968591;28;20023;-58
2020/12/05 10:58:39;;;;;;;212.55;97.28;;;;;;;11.23;94.23;97282.75;4966890;28;20441;-59
2020/12/05 11:01:05;;;;;;;203.82;98.13;;;;;;;10.99;93.32;97238.72;4968118;28;20039;-58
2020/12/05 11:03:30;;;;;;;195.65;93.38;;;;;;;11.21;93.69;97271.22;4968568;28;20565;-60
2020/12/05 11:05:56;;;;;;;191.50;91.38;;;;;;;11.33;93.60;97293.25;4968532;28;20057;-58
2020/12/05 11:08:21;;;;;;;214.18;99.57;;;;;;;9.04;93.11;96917.06;4968178;28;20062;-59
2020/12/05 11:10:47;;;;;;;207.32;99.10;;;;;;;11.38;93.58;97290.16;4962943;28;20485;-58
2020/12/05 11:13:12;;;;;;;191.85;91.60;;;;;;;11.12;93.24;97231.84;4968518;28;20046;-60
2020/12/05 11:15:40;;;;;;;197.85;96.93;;;;;;;11.14;92.53;97212.88;4961670;28;20039;-61
2020/12/05 11:18:07;;;;;;;222.75;103.18;;;;;;;11.54;92.60;97276.97;4947098;29;20453;-58
2020/12/05 11:20:32;;;;;;;254.40;125.30;;;;;;;11.54;92.89;97283.31;4955722;28;20031;-59